sensor_id;sensor_type;location;lat;lon;timestamp;pressure;altitude;pressure_sealevel;temperature
48854;BMP280;34673;52.808;17.856;2023-07-29T00:01:58;99698.25;;;16.86
48854;BMP280;34673;52.808;17.856;2023-07-29T00:04:27;99692.38;;;16.80
48854;BMP280;34673;52.808;17.856;2023-07-29T00:06:54;99705.53;;;16.98
48854;BMP280;34673;52.808;17.856;2023-07-29T00:09:21;99702.13;;;16.96
48854;BMP280;34673;52.808;17.856;2023-07-29T00:11:48;99704.00;;;16.94
48854;BMP280;34673;52.808;17.856;2023-07-29T00:14:15;99706.81;;;16.89
48854;BMP280;34673;52.808;17.856;2023-07-29T00:16:43;99673.97;;;16.63
48854;BMP280;34673;52.808;17.856;2023-07-29T00:19:10;99709.75;;;16.81
48854;BMP280;34673;52.808;17.856;2023-07-29T00:21:37;99686.13;;;16.64
48854;BMP280;34673;52.808;17.856;2023-07-29T00:24:04;99694.56;;;16.69
48854;BMP280;34673;52.808;17.856;2023-07-29T00:26:31;99657.22;;;16.48
48854;BMP280;34673;52.808;17.856;2023-07-29T00:28:59;99691.19;;;16.67
48854;BMP280;34673;52.808;17.856;2023-07-29T00:31:27;99703.19;;;16.71
48854;BMP280;34673;52.808;17.856;2023-07-29T00:33:56;99704.13;;;16.70
48854;BMP280;34673;52.808;17.856;2023-07-29T00:36:25;99683.00;;;16.56
48854;BMP280;34673;52.808;17.856;2023-07-29T00:38:51;99657.69;;;16.37
48854;BMP280;34673;52.808;17.856;2023-07-29T00:41:22;99637.16;;;16.28
48854;BMP280;34673;52.808;17.856;2023-07-29T00:43:49;99616.84;;;16.16
48854;BMP280;34673;52.808;17.856;2023-07-29T00:46:16;99704.78;;;16.75
48854;BMP280;34673;52.808;17.856;2023-07-29T00:48:44;99629.34;;;16.28
48854;BMP280;34673;52.808;17.856;2023-07-29T00:51:11;99705.75;;;16.73
48854;BMP280;34673;52.808;17.856;2023-07-29T00:53:38;99611.81;;;16.11
48854;BMP280;34673;52.808;17.856;2023-07-29T00:56:06;99714.69;;;16.67
48854;BMP280;34673;52.808;17.856;2023-07-29T00:58:34;99642.75;;;16.21
48854;BMP280;34673;52.808;17.856;2023-07-29T01:01:01;99713.22;;;16.61
48854;BMP280;34673;52.808;17.856;2023-07-29T01:03:28;99710.66;;;16.60
48854;BMP280;34673;52.808;17.856;2023-07-29T01:06:12;99705.09;;;16.47
48854;BMP280;34673;52.808;17.856;2023-07-29T01:09:02;99705.97;;;16.48
48854;BMP280;34673;52.808;17.856;2023-07-29T01:14:36;99706.22;;;16.42
48854;BMP280;34673;52.808;17.856;2023-07-29T01:17:09;99702.84;;;16.39
48854;BMP280;34673;52.808;17.856;2023-07-29T01:22:22;99676.53;;;16.24
48854;BMP280;34673;52.808;17.856;2023-07-29T01:24:50;99699.31;;;16.40
48854;BMP280;34673;52.808;17.856;2023-07-29T01:27:17;99695.38;;;16.51
48854;BMP280;34673;52.808;17.856;2023-07-29T01:29:45;99697.78;;;16.55
48854;BMP280;34673;52.808;17.856;2023-07-29T01:32:19;99688.44;;;16.50
48854;BMP280;34673;52.808;17.856;2023-07-29T01:35:31;99695.75;;;16.42
48854;BMP280;34673;52.808;17.856;2023-07-29T01:38:06;99694.34;;;16.34
48854;BMP280;34673;52.808;17.856;2023-07-29T01:40:36;99682.59;;;16.24
48854;BMP280;34673;52.808;17.856;2023-07-29T01:43:04;99692.94;;;16.26
48854;BMP280;34673;52.808;17.856;2023-07-29T01:45:31;99687.41;;;16.33
48854;BMP280;34673;52.808;17.856;2023-07-29T01:48:02;99663.81;;;16.16
48854;BMP280;34673;52.808;17.856;2023-07-29T01:50:29;99691.22;;;16.26
48854;BMP280;34673;52.808;17.856;2023-07-29T01:52:58;99668.75;;;16.02
48854;BMP280;34673;52.808;17.856;2023-07-29T01:55:26;99684.81;;;16.13
48854;BMP280;34673;52.808;17.856;2023-07-29T01:57:53;99701.25;;;16.15
48854;BMP280;34673;52.808;17.856;2023-07-29T02:00:22;99702.16;;;16.14
48854;BMP280;34673;52.808;17.856;2023-07-29T02:02:50;99637.81;;;15.72
48854;BMP280;34673;52.808;17.856;2023-07-29T02:05:17;99700.59;;;16.10
48854;BMP280;34673;52.808;17.856;2023-07-29T02:07:44;99700.81;;;16.04
48854;BMP280;34673;52.808;17.856;2023-07-29T02:10:11;99633.16;;;15.57
48854;BMP280;34673;52.808;17.856;2023-07-29T02:12:39;99700.81;;;16.04
48854;BMP280;34673;52.808;17.856;2023-07-29T02:15:06;99690.66;;;15.98
48854;BMP280;34673;52.808;17.856;2023-07-29T02:17:34;99701.63;;;16.06
48854;BMP280;34673;52.808;17.856;2023-07-29T02:20:01;99709.56;;;16.03
48854;BMP280;34673;52.808;17.856;2023-07-29T02:22:30;99697.56;;;15.99
48854;BMP280;34673;52.808;17.856;2023-07-29T02:24:57;99700.13;;;16.00
48854;BMP280;34673;52.808;17.856;2023-07-29T02:27:24;99709.56;;;16.03
48854;BMP280;34673;52.808;17.856;2023-07-29T02:29:54;99613.84;;;15.40
48854;BMP280;34673;52.808;17.856;2023-07-29T02:32:21;99679.16;;;15.81
48854;BMP280;34673;52.808;17.856;2023-07-29T02:34:48;99705.47;;;15.97
48854;BMP280;34673;52.808;17.856;2023-07-29T02:37:16;99715.91;;;15.97
48854;BMP280;34673;52.808;17.856;2023-07-29T02:39:44;99716.59;;;16.01
48854;BMP280;34673;52.808;17.856;2023-07-29T02:42:11;99717.16;;;16.09
48854;BMP280;34673;52.808;17.856;2023-07-29T02:44:40;99716.25;;;16.10
48854;BMP280;34673;52.808;17.856;2023-07-29T02:47:07;99720.00;;;16.03
48854;BMP280;34673;52.808;17.856;2023-07-29T02:49:34;99718.56;;;15.95
48854;BMP280;34673;52.808;17.856;2023-07-29T02:52:02;99717.97;;;15.89
48854;BMP280;34673;52.808;17.856;2023-07-29T02:54:29;99717.47;;;15.79
48854;BMP280;34673;52.808;17.856;2023-07-29T02:56:56;99660.06;;;15.35
48854;BMP280;34673;52.808;17.856;2023-07-29T02:59:24;99738.56;;;15.73
48854;BMP280;34673;52.808;17.856;2023-07-29T03:01:52;99649.47;;;15.18
48854;BMP280;34673;52.808;17.856;2023-07-29T03:04:20;99701.06;;;15.54
48854;BMP280;34673;52.808;17.856;2023-07-29T03:06:48;99702.97;;;15.50
48854;BMP280;34673;52.808;17.856;2023-07-29T03:09:15;99730.31;;;15.62
48854;BMP280;34673;52.808;17.856;2023-07-29T03:11:42;99735.25;;;15.68
48854;BMP280;34673;52.808;17.856;2023-07-29T03:14:10;99692.94;;;15.39
48854;BMP280;34673;52.808;17.856;2023-07-29T03:16:37;99650.47;;;15.14
48854;BMP280;34673;52.808;17.856;2023-07-29T03:19:05;99722.72;;;15.56
48854;BMP280;34673;52.808;17.856;2023-07-29T03:21:33;99745.59;;;15.71
48854;BMP280;34673;52.808;17.856;2023-07-29T03:24:00;99744.84;;;15.67
48854;BMP280;34673;52.808;17.856;2023-07-29T03:26:28;99743.06;;;15.69
48854;BMP280;34673;52.808;17.856;2023-07-29T03:28:55;99738.69;;;15.70
48854;BMP280;34673;52.808;17.856;2023-07-29T03:31:22;99726.78;;;15.63
48854;BMP280;34673;52.808;17.856;2023-07-29T03:33:49;99660.56;;;15.23
48854;BMP280;34673;52.808;17.856;2023-07-29T03:36:16;99741.84;;;15.78
48854;BMP280;34673;52.808;17.856;2023-07-29T03:38:44;99711.13;;;15.63
48854;BMP280;34673;52.808;17.856;2023-07-29T03:41:11;99740.81;;;15.82
48854;BMP280;34673;52.808;17.856;2023-07-29T03:43:39;99737.50;;;15.79
48854;BMP280;34673;52.808;17.856;2023-07-29T03:46:06;99647.59;;;15.21
48854;BMP280;34673;52.808;17.856;2023-07-29T03:48:38;99704.59;;;15.52
48854;BMP280;34673;52.808;17.856;2023-07-29T03:51:05;99746.94;;;15.81
48854;BMP280;34673;52.808;17.856;2023-07-29T03:53:33;99742.53;;;15.83
48854;BMP280;34673;52.808;17.856;2023-07-29T03:56:00;99741.06;;;15.76
48854;BMP280;34673;52.808;17.856;2023-07-29T03:58:27;99724.63;;;15.74
48854;BMP280;34673;52.808;17.856;2023-07-29T04:00:55;99748.41;;;15.88
48854;BMP280;34673;52.808;17.856;2023-07-29T04:03:22;99755.31;;;15.89
48854;BMP280;34673;52.808;17.856;2023-07-29T04:05:51;99755.31;;;15.89
48854;BMP280;34673;52.808;17.856;2023-07-29T04:08:19;99702.53;;;15.61
48854;BMP280;34673;52.808;17.856;2023-07-29T04:10:46;99755.06;;;15.95
48854;BMP280;34673;52.808;17.856;2023-07-29T04:13:13;99753.25;;;15.98
48854;BMP280;34673;52.808;17.856;2023-07-29T04:15:40;99751.31;;;16.03
48854;BMP280;34673;52.808;17.856;2023-07-29T04:18:08;99699.47;;;15.73
48854;BMP280;34673;52.808;17.856;2023-07-29T04:20:35;99747.44;;;16.13
48854;BMP280;34673;52.808;17.856;2023-07-29T04:23:03;99701.34;;;15.91
48854;BMP280;34673;52.808;17.856;2023-07-29T04:25:30;99740.13;;;16.21
48854;BMP280;34673;52.808;17.856;2023-07-29T04:27:57;99678.75;;;15.90
48854;BMP280;34673;52.808;17.856;2023-07-29T04:30:25;99748.06;;;16.40
48854;BMP280;34673;52.808;17.856;2023-07-29T04:32:52;99749.63;;;16.44
48854;BMP280;34673;52.808;17.856;2023-07-29T04:35:20;99746.16;;;16.44
48854;BMP280;34673;52.808;17.856;2023-07-29T04:37:48;99749.44;;;16.49
48854;BMP280;34673;52.808;17.856;2023-07-29T04:40:15;99746.03;;;16.47
48854;BMP280;34673;52.808;17.856;2023-07-29T04:42:43;99752.56;;;16.57
48854;BMP280;34673;52.808;17.856;2023-07-29T04:45:10;99757.50;;;16.63
48854;BMP280;34673;52.808;17.856;2023-07-29T04:47:37;99712.16;;;16.45
48854;BMP280;34673;52.808;17.856;2023-07-29T04:50:05;99755.09;;;16.80
48854;BMP280;34673;52.808;17.856;2023-07-29T04:52:33;99727.34;;;16.76
48854;BMP280;34673;52.808;17.856;2023-07-29T04:55:00;99714.28;;;16.76
48854;BMP280;34673;52.808;17.856;2023-07-29T04:57:27;99753.03;;;17.08
48854;BMP280;34673;52.808;17.856;2023-07-29T04:59:56;99773.31;;;17.21
48854;BMP280;34673;52.808;17.856;2023-07-29T05:02:23;99685.44;;;16.79
48854;BMP280;34673;52.808;17.856;2023-07-29T05:04:50;99744.13;;;17.31
48854;BMP280;34673;52.808;17.856;2023-07-29T05:07:17;99770.13;;;17.53
48854;BMP280;34673;52.808;17.856;2023-07-29T05:09:44;99728.66;;;17.45
48854;BMP280;34673;52.808;17.856;2023-07-29T05:12:11;99764.75;;;17.75
48854;BMP280;34673;52.808;17.856;2023-07-29T05:14:38;99762.59;;;17.84
48854;BMP280;34673;52.808;17.856;2023-07-29T05:17:05;99754.06;;;17.81
48854;BMP280;34673;52.808;17.856;2023-07-29T05:19:32;99772.53;;;17.95
48854;BMP280;34673;52.808;17.856;2023-07-29T05:22:00;99774.09;;;17.99
48854;BMP280;34673;52.808;17.856;2023-07-29T05:24:27;99767.00;;;18.01
48854;BMP280;34673;52.808;17.856;2023-07-29T05:26:55;99714.72;;;17.63
48854;BMP280;34673;52.808;17.856;2023-07-29T05:29:22;99764.53;;;17.98
48854;BMP280;34673;52.808;17.856;2023-07-29T05:31:49;99771.03;;;18.08
48854;BMP280;34673;52.808;17.856;2023-07-29T05:34:18;99731.09;;;17.86
48854;BMP280;34673;52.808;17.856;2023-07-29T05:36:45;99759.78;;;18.06
48854;BMP280;34673;52.808;17.856;2023-07-29T05:39:13;99690.69;;;17.55
48854;BMP280;34673;52.808;17.856;2023-07-29T05:41:40;99758.78;;;18.09
48854;BMP280;34673;52.808;17.856;2023-07-29T05:44:07;99762.72;;;18.17
48854;BMP280;34673;52.808;17.856;2023-07-29T05:46:36;99723.44;;;18.00
48854;BMP280;34673;52.808;17.856;2023-07-29T05:49:04;99753.66;;;18.25
48854;BMP280;34673;52.808;17.856;2023-07-29T05:51:31;99766.91;;;18.39
48854;BMP280;34673;52.808;17.856;2023-07-29T05:53:58;99739.47;;;18.29
48854;BMP280;34673;52.808;17.856;2023-07-29T05:56:26;99718.00;;;18.22
48854;BMP280;34673;52.808;17.856;2023-07-29T05:58:53;99741.41;;;18.43
48854;BMP280;34673;52.808;17.856;2023-07-29T06:01:20;99764.00;;;18.63
48854;BMP280;34673;52.808;17.856;2023-07-29T06:03:48;99765.22;;;18.73
48854;BMP280;34673;52.808;17.856;2023-07-29T06:06:16;99765.84;;;18.78
48854;BMP280;34673;52.808;17.856;2023-07-29T06:08:43;99751.06;;;18.77
48854;BMP280;34673;52.808;17.856;2023-07-29T06:11:11;99769.38;;;18.94
48854;BMP280;34673;52.808;17.856;2023-07-29T06:13:38;99716.50;;;18.69
48854;BMP280;34673;52.808;17.856;2023-07-29T06:16:05;99734.84;;;18.86
48854;BMP280;34673;52.808;17.856;2023-07-29T06:18:33;99766.38;;;19.18
48854;BMP280;34673;52.808;17.856;2023-07-29T06:21:00;99696.63;;;18.82
48854;BMP280;34673;52.808;17.856;2023-07-29T06:23:27;99756.88;;;19.33
48854;BMP280;34673;52.808;17.856;2023-07-29T06:25:55;99757.13;;;19.44
48854;BMP280;34673;52.808;17.856;2023-07-29T06:28:22;99759.34;;;19.52
48854;BMP280;34673;52.808;17.856;2023-07-29T06:30:49;99768.66;;;19.73
48854;BMP280;34673;52.808;17.856;2023-07-29T06:33:19;99688.84;;;19.45
48854;BMP280;34673;52.808;17.856;2023-07-29T06:35:46;99767.56;;;20.09
48854;BMP280;34673;52.808;17.856;2023-07-29T06:38:13;99746.19;;;20.15
48854;BMP280;34673;52.808;17.856;2023-07-29T06:40:40;99727.41;;;20.07
48854;BMP280;34673;52.808;17.856;2023-07-29T06:43:11;99771.44;;;20.48
48854;BMP280;34673;52.808;17.856;2023-07-29T06:45:38;99779.03;;;20.68
48854;BMP280;34673;52.808;17.856;2023-07-29T06:48:06;99769.13;;;20.88
48854;BMP280;34673;52.808;17.856;2023-07-29T06:50:33;99774.94;;;21.07
48854;BMP280;34673;52.808;17.856;2023-07-29T06:53:00;99751.84;;;21.12
48854;BMP280;34673;52.808;17.856;2023-07-29T06:55:28;99768.47;;;21.41
48854;BMP280;34673;52.808;17.856;2023-07-29T06:57:55;99763.94;;;21.58
48854;BMP280;34673;52.808;17.856;2023-07-29T07:00:22;99769.75;;;21.77
48854;BMP280;34673;52.808;17.856;2023-07-29T07:02:49;99753.97;;;21.90
48854;BMP280;34673;52.808;17.856;2023-07-29T07:05:16;99761.75;;;22.06
48854;BMP280;34673;52.808;17.856;2023-07-29T07:07:43;99755.59;;;22.20
48854;BMP280;34673;52.808;17.856;2023-07-29T07:10:11;99725.88;;;22.18
48854;BMP280;34673;52.808;17.856;2023-07-29T07:12:38;99763.06;;;22.53
48854;BMP280;34673;52.808;17.856;2023-07-29T07:15:06;99742.94;;;22.65
48854;BMP280;34673;52.808;17.856;2023-07-29T07:17:33;99731.44;;;22.66
48854;BMP280;34673;52.808;17.856;2023-07-29T07:20:00;99728.50;;;22.83
48854;BMP280;34673;52.808;17.856;2023-07-29T07:22:27;99732.00;;;22.96
48854;BMP280;34673;52.808;17.856;2023-07-29T07:24:55;99716.50;;;23.05
48854;BMP280;34673;52.808;17.856;2023-07-29T07:27:22;99739.66;;;23.25
48854;BMP280;34673;52.808;17.856;2023-07-29T07:29:50;99733.94;;;23.31
48854;BMP280;34673;52.808;17.856;2023-07-29T07:32:17;99724.66;;;23.38
48854;BMP280;34673;52.808;17.856;2023-07-29T07:34:44;99740.63;;;23.61
48854;BMP280;34673;52.808;17.856;2023-07-29T07:37:12;99741.00;;;23.80
48854;BMP280;34673;52.808;17.856;2023-07-29T07:39:39;99731.91;;;23.84
48854;BMP280;34673;52.808;17.856;2023-07-29T07:42:06;99742.44;;;23.97
48854;BMP280;34673;52.808;17.856;2023-07-29T07:44:33;99712.16;;;24.01
48854;BMP280;34673;52.808;17.856;2023-07-29T07:47:01;99713.28;;;24.10
48854;BMP280;34673;52.808;17.856;2023-07-29T07:49:31;99731.16;;;24.42
48854;BMP280;34673;52.808;17.856;2023-07-29T07:51:58;99735.34;;;24.57
48854;BMP280;34673;52.808;17.856;2023-07-29T07:54:25;99734.13;;;24.72
48854;BMP280;34673;52.808;17.856;2023-07-29T07:56:53;99731.16;;;24.77
48854;BMP280;34673;52.808;17.856;2023-07-29T07:59:20;99739.22;;;24.87
48854;BMP280;34673;52.808;17.856;2023-07-29T08:01:47;99730.56;;;24.96
48854;BMP280;34673;52.808;17.856;2023-07-29T08:04:14;99722.13;;;25.02
48854;BMP280;34673;52.808;17.856;2023-07-29T08:06:42;99731.06;;;25.24
48854;BMP280;34673;52.808;17.856;2023-07-29T08:09:09;99678.84;;;25.03
48854;BMP280;34673;52.808;17.856;2023-07-29T08:11:36;99697.50;;;25.24
48854;BMP280;34673;52.808;17.856;2023-07-29T08:14:03;99708.78;;;25.37
48854;BMP280;34673;52.808;17.856;2023-07-29T08:16:30;99716.25;;;25.55
48854;BMP280;34673;52.808;17.856;2023-07-29T08:18:58;99718.28;;;25.62
48854;BMP280;34673;52.808;17.856;2023-07-29T08:21:26;99690.34;;;25.58
48854;BMP280;34673;52.808;17.856;2023-07-29T08:23:54;99705.94;;;25.84
48854;BMP280;34673;52.808;17.856;2023-07-29T08:26:21;99706.03;;;25.94
48854;BMP280;34673;52.808;17.856;2023-07-29T08:28:48;99696.97;;;25.96
48854;BMP280;34673;52.808;17.856;2023-07-29T08:31:20;99712.31;;;26.14
48854;BMP280;34673;52.808;17.856;2023-07-29T08:33:48;99691.88;;;26.04
48854;BMP280;34673;52.808;17.856;2023-07-29T08:36:15;99706.53;;;26.20
48854;BMP280;34673;52.808;17.856;2023-07-29T08:38:46;99711.50;;;26.34
48854;BMP280;34673;52.808;17.856;2023-07-29T08:41:31;99710.25;;;26.38
48854;BMP280;34673;52.808;17.856;2023-07-29T08:44:11;99707.75;;;26.37
48854;BMP280;34673;52.808;17.856;2023-07-29T08:46:39;99636.47;;;26.01
48854;BMP280;34673;52.808;17.856;2023-07-29T08:49:07;99712.09;;;26.59
48854;BMP280;34673;52.808;17.856;2023-07-29T08:51:36;99707.50;;;26.61
48854;BMP280;34673;52.808;17.856;2023-07-29T08:54:03;99678.16;;;26.52
48854;BMP280;34673;52.808;17.856;2023-07-29T08:56:31;99660.59;;;26.40
48854;BMP280;34673;52.808;17.856;2023-07-29T08:58:58;99693.72;;;26.25
48854;BMP280;34673;52.808;17.856;2023-07-29T09:01:28;99640.44;;;25.75
48854;BMP280;34673;52.808;17.856;2023-07-29T09:03:58;99693.66;;;26.36
48854;BMP280;34673;52.808;17.856;2023-07-29T09:06:26;99687.69;;;26.65
48854;BMP280;34673;52.808;17.856;2023-07-29T09:08:54;99695.50;;;26.87
48854;BMP280;34673;52.808;17.856;2023-07-29T09:11:25;99690.38;;;26.95
48854;BMP280;34673;52.808;17.856;2023-07-29T09:13:52;99690.56;;;27.13
48854;BMP280;34673;52.808;17.856;2023-07-29T09:16:20;99687.72;;;26.95
48854;BMP280;34673;52.808;17.856;2023-07-29T09:18:49;99680.28;;;26.59
48854;BMP280;34673;52.808;17.856;2023-07-29T09:21:24;99691.00;;;26.36
48854;BMP280;34673;52.808;17.856;2023-07-29T09:23:53;99688.59;;;26.12
48854;BMP280;34673;52.808;17.856;2023-07-29T09:26:28;99618.63;;;25.50
48854;BMP280;34673;52.808;17.856;2023-07-29T09:28:57;99649.63;;;25.59
48854;BMP280;34673;52.808;17.856;2023-07-29T09:31:26;99673.47;;;25.71
48854;BMP280;34673;52.808;17.856;2023-07-29T09:33:59;99666.75;;;25.55
48854;BMP280;34673;52.808;17.856;2023-07-29T09:36:27;99680.72;;;25.57
48854;BMP280;34673;52.808;17.856;2023-07-29T09:38:55;99665.22;;;25.85
48854;BMP280;34673;52.808;17.856;2023-07-29T09:41:29;99673.91;;;26.29
48854;BMP280;34673;52.808;17.856;2023-07-29T09:44:01;99682.84;;;26.70
48854;BMP280;34673;52.808;17.856;2023-07-29T09:46:37;99682.47;;;26.53
48854;BMP280;34673;52.808;17.856;2023-07-29T09:49:06;99675.50;;;26.52
48854;BMP280;34673;52.808;17.856;2023-07-29T09:51:38;99651.81;;;26.61
48854;BMP280;34673;52.808;17.856;2023-07-29T09:54:07;99631.47;;;26.71
48854;BMP280;34673;52.808;17.856;2023-07-29T09:56:39;99666.81;;;27.12
48854;BMP280;34673;52.808;17.856;2023-07-29T09:59:09;99666.88;;;27.31
48854;BMP280;34673;52.808;17.856;2023-07-29T10:01:37;99625.00;;;27.14
48854;BMP280;34673;52.808;17.856;2023-07-29T10:04:05;99668.66;;;27.21
48854;BMP280;34673;52.808;17.856;2023-07-29T10:06:37;99656.53;;;27.28
48854;BMP280;34673;52.808;17.856;2023-07-29T10:09:06;99664.69;;;27.56
48854;BMP280;34673;52.808;17.856;2023-07-29T10:11:35;99664.69;;;27.75
48854;BMP280;34673;52.808;17.856;2023-07-29T10:14:03;99659.97;;;27.89
48854;BMP280;34673;52.808;17.856;2023-07-29T10:16:39;99662.19;;;28.03
48854;BMP280;34673;52.808;17.856;2023-07-29T10:19:07;99590.84;;;27.69
48854;BMP280;34673;52.808;17.856;2023-07-29T10:21:38;99652.09;;;28.16
48854;BMP280;34673;52.808;17.856;2023-07-29T10:24:09;99658.25;;;28.26
48854;BMP280;34673;52.808;17.856;2023-07-29T10:26:45;99604.53;;;28.03
48854;BMP280;34673;52.808;17.856;2023-07-29T10:29:14;99663.59;;;28.07
48854;BMP280;34673;52.808;17.856;2023-07-29T10:31:46;99652.69;;;28.00
48854;BMP280;34673;52.808;17.856;2023-07-29T10:34:14;99632.81;;;27.95
48854;BMP280;34673;52.808;17.856;2023-07-29T10:36:42;99650.38;;;28.35
48854;BMP280;34673;52.808;17.856;2023-07-29T10:39:10;99633.03;;;28.50
48854;BMP280;34673;52.808;17.856;2023-07-29T10:41:57;99650.38;;;28.35
48854;BMP280;34673;52.808;17.856;2023-07-29T10:45:00;99630.03;;;27.87
48854;BMP280;34673;52.808;17.856;2023-07-29T10:47:28;99631.44;;;27.91
48854;BMP280;34673;52.808;17.856;2023-07-29T10:49:57;99633.09;;;27.92
48854;BMP280;34673;52.808;17.856;2023-07-29T10:55:02;99624.50;;;28.17
48854;BMP280;34673;52.808;17.856;2023-07-29T10:57:36;99622.97;;;28.24
48854;BMP280;34673;52.808;17.856;2023-07-29T11:00:04;99594.75;;;27.84
48854;BMP280;34673;52.808;17.856;2023-07-29T11:02:36;99617.72;;;27.86
48854;BMP280;34673;52.808;17.856;2023-07-29T11:05:15;99613.50;;;27.93
48854;BMP280;34673;52.808;17.856;2023-07-29T11:07:45;99612.97;;;27.99
48854;BMP280;34673;52.808;17.856;2023-07-29T11:10:13;99603.69;;;28.13
48854;BMP280;34673;52.808;17.856;2023-07-29T11:15:17;99602.56;;;28.62
48854;BMP280;34673;52.808;17.856;2023-07-29T11:17:59;99594.28;;;28.65
48854;BMP280;34673;52.808;17.856;2023-07-29T11:20:28;99563.25;;;28.56
48854;BMP280;34673;52.808;17.856;2023-07-29T11:22:58;99607.38;;;28.49
48854;BMP280;34673;52.808;17.856;2023-07-29T11:25:28;99572.97;;;27.91
48854;BMP280;34673;52.808;17.856;2023-07-29T11:28:05;99582.59;;;27.72
48854;BMP280;34673;52.808;17.856;2023-07-29T11:30:33;99592.53;;;27.70
48854;BMP280;34673;52.808;17.856;2023-07-29T11:33:01;99590.28;;;27.66
48854;BMP280;34673;52.808;17.856;2023-07-29T11:35:28;99577.97;;;27.74
48854;BMP280;34673;52.808;17.856;2023-07-29T11:37:55;99511.28;;;27.58
48854;BMP280;34673;52.808;17.856;2023-07-29T11:40:26;99506.34;;;27.92
48854;BMP280;34673;52.808;17.856;2023-07-29T11:42:54;99581.19;;;28.54
48854;BMP280;34673;52.808;17.856;2023-07-29T11:45:22;99582.59;;;28.48
48854;BMP280;34673;52.808;17.856;2023-07-29T11:48:01;99577.34;;;28.19
48854;BMP280;34673;52.808;17.856;2023-07-29T11:50:29;99565.66;;;27.93
48854;BMP280;34673;52.808;17.856;2023-07-29T11:52:57;99570.72;;;27.67
48854;BMP280;34673;52.808;17.856;2023-07-29T11:55:28;99509.47;;;27.10
48854;BMP280;34673;52.808;17.856;2023-07-29T11:57:57;99560.38;;;27.34
48854;BMP280;34673;52.808;17.856;2023-07-29T12:00:26;99518.94;;;27.03
48854;BMP280;34673;52.808;17.856;2023-07-29T12:02:53;99562.59;;;27.29
48854;BMP280;34673;52.808;17.856;2023-07-29T12:05:22;99542.72;;;27.14
48854;BMP280;34673;52.808;17.856;2023-07-29T12:07:50;99559.66;;;27.32
48854;BMP280;34673;52.808;17.856;2023-07-29T12:10:17;99551.00;;;27.50
48854;BMP280;34673;52.808;17.856;2023-07-29T12:12:47;99539.38;;;27.70
48854;BMP280;34673;52.808;17.856;2023-07-29T12:15:29;99535.44;;;27.94
48854;BMP280;34673;52.808;17.856;2023-07-29T12:17:57;99527.88;;;27.99
48854;BMP280;34673;52.808;17.856;2023-07-29T12:20:26;99528.44;;;27.93
48854;BMP280;34673;52.808;17.856;2023-07-29T12:22:58;99506.66;;;27.70
48854;BMP280;34673;52.808;17.856;2023-07-29T12:25:26;99515.56;;;27.78
48854;BMP280;34673;52.808;17.856;2023-07-29T12:27:54;99446.34;;;27.23
48854;BMP280;34673;52.808;17.856;2023-07-29T12:30:22;99510.88;;;27.53
48854;BMP280;34673;52.808;17.856;2023-07-29T12:32:50;99500.28;;;27.33
48854;BMP280;34673;52.808;17.856;2023-07-29T12:35:17;99497.50;;;27.25
48854;BMP280;34673;52.808;17.856;2023-07-29T12:37:58;99503.06;;;27.42
48854;BMP280;34673;52.808;17.856;2023-07-29T12:40:28;99501.94;;;27.34
48854;BMP280;34673;52.808;17.856;2023-07-29T12:42:56;99487.94;;;27.13
48854;BMP280;34673;52.808;17.856;2023-07-29T12:45:23;99496.03;;;27.02
48854;BMP280;34673;52.808;17.856;2023-07-29T12:47:54;99488.75;;;26.84
48854;BMP280;34673;52.808;17.856;2023-07-29T12:50:22;99484.00;;;26.78
48854;BMP280;34673;52.808;17.856;2023-07-29T12:52:49;99481.19;;;26.70
48854;BMP280;34673;52.808;17.856;2023-07-29T12:55:16;99476.72;;;26.70
48854;BMP280;34673;52.808;17.856;2023-07-29T12:57:50;99462.06;;;26.76
48854;BMP280;34673;52.808;17.856;2023-07-29T13:00:18;99405.78;;;26.53
48854;BMP280;34673;52.808;17.856;2023-07-29T13:02:47;99468.09;;;26.97
48854;BMP280;34673;52.808;17.856;2023-07-29T13:05:22;99459.44;;;26.95
48854;BMP280;34673;52.808;17.856;2023-07-29T13:07:53;99443.94;;;26.91
48854;BMP280;34673;52.808;17.856;2023-07-29T13:10:23;99436.78;;;27.11
48854;BMP280;34673;52.808;17.856;2023-07-29T13:12:56;99454.44;;;27.31
48854;BMP280;34673;52.808;17.856;2023-07-29T13:15:25;99446.63;;;27.20
48854;BMP280;34673;52.808;17.856;2023-07-29T13:17:52;99455.69;;;27.27
48854;BMP280;34673;52.808;17.856;2023-07-29T13:20:20;99457.75;;;27.43
48854;BMP280;34673;52.808;17.856;2023-07-29T13:22:47;99383.41;;;27.14
48854;BMP280;34673;52.808;17.856;2023-07-29T13:25:14;99452.09;;;27.66
48854;BMP280;34673;52.808;17.856;2023-07-29T13:27:42;99450.44;;;27.65
48854;BMP280;34673;52.808;17.856;2023-07-29T13:30:09;99453.53;;;27.60
48854;BMP280;34673;52.808;17.856;2023-07-29T13:32:36;99442.38;;;27.47
48854;BMP280;34673;52.808;17.856;2023-07-29T13:35:04;99437.34;;;27.44
48854;BMP280;34673;52.808;17.856;2023-07-29T13:37:31;99433.44;;;27.38
48854;BMP280;34673;52.808;17.856;2023-07-29T13:39:59;99423.56;;;27.21
48854;BMP280;34673;52.808;17.856;2023-07-29T13:42:26;99428.41;;;27.15
48854;BMP280;34673;52.808;17.856;2023-07-29T13:44:53;99424.78;;;27.07
48854;BMP280;34673;52.808;17.856;2023-07-29T13:47:20;99424.78;;;27.07
48854;BMP280;34673;52.808;17.856;2023-07-29T13:49:48;99400.78;;;26.99
48854;BMP280;34673;52.808;17.856;2023-07-29T13:52:18;99382.59;;;26.84
48854;BMP280;34673;52.808;17.856;2023-07-29T13:54:45;99405.66;;;26.93
48854;BMP280;34673;52.808;17.856;2023-07-29T13:57:12;99389.59;;;26.85
48854;BMP280;34673;52.808;17.856;2023-07-29T13:59:40;99389.88;;;26.82
48854;BMP280;34673;52.808;17.856;2023-07-29T14:02:07;99353.56;;;26.53
48854;BMP280;34673;52.808;17.856;2023-07-29T14:04:34;99376.78;;;26.71
48854;BMP280;34673;52.808;17.856;2023-07-29T14:07:02;99378.72;;;26.69
48854;BMP280;34673;52.808;17.856;2023-07-29T14:09:30;99374.53;;;26.66
48854;BMP280;34673;52.808;17.856;2023-07-29T14:11:58;99368.81;;;26.71
48854;BMP280;34673;52.808;17.856;2023-07-29T14:14:25;99367.81;;;26.72
48854;BMP280;34673;52.808;17.856;2023-07-29T14:16:53;99342.41;;;26.60